Time;durP1;ratioP1;P1;durP2;ratioP2;P2;SDS_P1;SDS_P2;PMS_P1;PMS_P2;Temp;Humidity;BMP_temperature;BMP_pressure;BME280_temperature;BME280_humidity;BME280_pressure;Samples;Min_cycle;Max_cycle;Signal;HPM_P1;HPM_P2
2022/03/06 00:00:26;;;;;;;21.37;11.83;;;-1.10;99.90;;;;;;4919259;29;20224;-29
2022/03/06 00:02:52;;;;;;;17.40;11.53;;;-1.10;99.90;;;;;;4920299;29;20261;-28
2022/03/06 00:05:18;;;;;;;20.07;11.27;;;-1.10;99.90;;;;;;4918177;29;20181;-28
2022/03/06 00:07:44;;;;;;;23.60;13.13;;;-1.20;99.90;;;;;;4918333;29;20178;-30
2022/03/06 00:10:11;;;;;;;23.10;12.60;;;-1.20;99.90;;;;;;4917857;29;20232;-28
2022/03/06 00:12:37;;;;;;;20.17;11.27;;;-1.20;99.90;;;;;;4918141;29;20189;-29
2022/03/06 00:15:04;;;;;;;19.83;11.27;;;-1.20;99.90;;;;;;4917605;29;20219;-29
2022/03/06 00:17:30;;;;;;;22.70;12.30;;;-1.30;99.90;;;;;;4917802;29;20218;-29
2022/03/06 00:19:55;;;;;;;20.20;11.57;;;-1.40;99.90;;;;;;4917593;29;20298;-29
2022/03/06 00:22:21;;;;;;;17.93;10.87;;;-1.40;99.90;;;;;;4918024;29;20178;-28
2022/03/06 00:24:47;;;;;;;17.37;10.90;;;-1.40;99.90;;;;;;4917502;29;20209;-30
2022/03/06 00:27:13;;;;;;;19.77;11.73;;;-1.40;99.90;;;;;;4917628;29;20193;-29
2022/03/06 00:29:38;;;;;;;20.10;11.80;;;-1.50;99.90;;;;;;4917383;29;20182;-29
2022/03/06 00:32:04;;;;;;;19.80;11.20;;;-1.50;99.90;;;;;;4933641;29;20201;-28
2022/03/06 00:34:30;;;;;;;19.83;10.67;;;-1.50;99.90;;;;;;4917508;29;20205;-29
2022/03/06 00:36:56;;;;;;;22.73;12.43;;;-1.50;99.90;;;;;;4917817;29;20586;-29
2022/03/06 00:39:22;;;;;;;23.13;12.40;;;-1.60;99.90;;;;;;4917112;29;20217;-29
2022/03/06 00:41:48;;;;;;;21.57;11.33;;;-1.70;99.90;;;;;;4917406;29;20193;-28
2022/03/06 00:44:13;;;;;;;21.47;12.50;;;-1.60;99.90;;;;;;4934273;29;20198;-29
2022/03/06 00:46:40;;;;;;;22.33;12.23;;;-1.60;99.90;;;;;;4917423;29;20182;-28
2022/03/06 00:49:06;;;;;;;21.97;11.97;;;-1.50;99.90;;;;;;4917009;29;20205;-28
2022/03/06 00:51:32;;;;;;;21.70;12.67;;;-1.50;99.90;;;;;;4917131;29;20216;-29
2022/03/06 00:53:58;;;;;;;21.17;12.07;;;-1.60;99.90;;;;;;4933088;29;20256;-29
2022/03/06 00:56:24;;;;;;;21.10;11.63;;;-1.70;99.90;;;;;;4917375;29;20272;-29
2022/03/06 00:58:49;;;;;;;20.83;12.00;;;-1.80;99.90;;;;;;4916785;29;20178;-29
2022/03/06 01:01:16;;;;;;;18.03;10.50;;;-1.80;99.90;;;;;;4934335;29;20213;-29
2022/03/06 01:03:41;;;;;;;23.87;11.90;;;-1.70;99.90;;;;;;4934249;29;20243;-28
2022/03/06 01:06:07;;;;;;;18.40;11.23;;;-1.80;99.90;;;;;;4917151;29;20179;-29
2022/03/06 01:08:33;;;;;;;20.77;10.77;;;-1.80;99.90;;;;;;4916890;29;20188;-28
2022/03/06 01:10:59;;;;;;;22.20;12.43;;;-1.80;99.90;;;;;;4916748;29;20190;-29
2022/03/06 01:13:25;;;;;;;20.87;11.77;;;-1.90;99.90;;;;;;4916840;29;20300;-29
2022/03/06 01:15:51;;;;;;;21.40;11.13;;;-2.00;99.90;;;;;;4917031;29;20182;-29
2022/03/06 01:18:17;;;;;;;25.30;13.63;;;-2.00;99.90;;;;;;4917092;29;20189;-29
2022/03/06 01:20:42;;;;;;;23.20;12.90;;;-2.00;99.90;;;;;;4916828;29;20687;-28
2022/03/06 01:23:09;;;;;;;22.33;12.40;;;-2.10;99.90;;;;;;4916530;29;20315;-28
2022/03/06 01:25:34;;;;;;;21.43;11.37;;;-2.10;99.90;;;;;;4916691;29;20174;-28
2022/03/06 01:28:01;;;;;;;21.57;11.83;;;-2.10;99.90;;;;;;4916863;29;20182;-27
2022/03/06 01:30:27;;;;;;;18.77;10.83;;;-2.20;99.90;;;;;;4916610;29;20181;-29
2022/03/06 01:32:53;;;;;;;19.13;10.47;;;-2.20;99.90;;;;;;4916761;29;20237;-29
2022/03/06 01:35:20;;;;;;;22.20;12.30;;;-2.20;99.90;;;;;;4916685;29;20237;-29
2022/03/06 01:37:46;;;;;;;22.30;12.03;;;-2.20;99.90;;;;;;4916487;29;20261;-29
2022/03/06 01:40:15;;;;;;;20.50;11.90;;;-2.30;99.90;;;;;;4921356;29;20308;-30
2022/03/06 01:42:42;;;;;;;31.07;19.40;;;-2.30;99.90;;;;;;4935544;29;20177;-29
2022/03/06 01:45:09;;;;;;;38.30;25.83;;;-2.50;99.90;;;;;;4953069;28;20197;-28
2022/03/06 01:47:40;;;;;;;29.93;19.20;;;-2.80;99.90;;;;;;4935678;29;20183;-30
2022/03/06 01:50:12;;;;;;;22.80;13.77;;;-2.90;99.90;;;;;;4935053;28;20192;-28
2022/03/06 01:52:38;;;;;;;25.90;11.67;;;-2.90;99.90;;;;;;4935527;29;20184;-29
2022/03/06 01:55:05;;;;;;;19.80;12.10;;;-2.80;99.90;;;;;;4935269;29;20256;-29
2022/03/06 01:57:32;;;;;;;21.40;11.03;;;-2.80;99.90;;;;;;4935789;29;20232;-29
2022/03/06 02:00:04;;;;;;;19.40;10.73;;;-2.80;99.90;;;;;;4935301;29;20212;-28
2022/03/06 02:02:37;;;;;;;20.03;10.53;;;-2.70;99.90;;;;;;4939279;29;20185;-30
2022/03/06 02:05:04;;;;;;;20.30;10.63;;;-2.60;99.90;;;;;;4955191;28;20197;-29
2022/03/06 02:07:30;;;;;;;19.17;10.57;;;-2.60;99.90;;;;;;4938559;29;20186;-28
2022/03/06 02:09:57;;;;;;;21.43;11.53;;;-2.60;99.90;;;;;;4952963;28;20201;-28
2022/03/06 02:12:24;;;;;;;24.27;11.43;;;-2.60;99.90;;;;;;4920326;29;20182;-30
2022/03/06 02:14:55;;;;;;;20.47;10.50;;;-2.60;99.90;;;;;;4920758;29;20226;-29
2022/03/06 02:17:22;;;;;;;15.50;9.97;;;-2.70;99.90;;;;;;4935956;29;20261;-30
2022/03/06 02:19:52;;;;;;;20.67;10.83;;;-2.70;99.90;;;;;;4936750;29;20212;-29
2022/03/06 02:22:32;;;;;;;24.07;10.67;;;-2.70;99.90;;;;;;4920039;29;20192;-30
2022/03/06 02:25:00;;;;;;;20.00;10.43;;;-2.70;99.90;;;;;;4935851;29;20294;-29
2022/03/06 02:27:26;;;;;;;18.33;10.83;;;-2.80;99.90;;;;;;4935821;29;20178;-30
2022/03/06 02:29:53;;;;;;;18.33;10.00;;;-2.80;99.90;;;;;;4950885;29;20182;-29
2022/03/06 02:32:21;;;;;;;17.70;10.93;;;-2.80;99.90;;;;;;4919916;29;20186;-29
2022/03/06 02:34:48;;;;;;;22.30;11.77;;;-2.80;99.90;;;;;;4936797;29;20206;-30
2022/03/06 02:37:17;;;;;;;20.53;11.07;;;-2.70;99.90;;;;;;4935540;29;20230;-30
2022/03/06 02:39:44;;;;;;;19.23;10.27;;;-2.70;99.90;;;;;;4935269;29;20214;-30
2022/03/06 02:42:10;;;;;;;19.87;9.63;;;-2.80;99.90;;;;;;4919353;29;20182;-29
2022/03/06 02:45:16;;;;;;;19.53;10.13;;;-2.80;99.90;;;;;;4919493;29;20209;-29
2022/03/06 02:47:43;;;;;;;20.60;10.30;;;-2.80;99.90;;;;;;4935356;29;20258;-29
2022/03/06 02:50:12;;;;;;;22.73;11.47;;;-2.80;99.90;;;;;;4919406;29;20245;-29
2022/03/06 02:52:38;;;;;;;19.00;10.17;;;-2.90;99.90;;;;;;4919363;29;20189;-29
2022/03/06 02:55:06;;;;;;;19.53;10.20;;;-2.90;99.90;;;;;;4919606;29;20198;-29
2022/03/06 02:57:32;;;;;;;18.63;10.50;;;-2.90;99.90;;;;;;4919282;29;20182;-29
2022/03/06 02:59:57;;;;;;;18.00;10.03;;;-2.80;99.90;;;;;;4918967;29;20269;-29
2022/03/06 03:02:23;;;;;;;18.43;9.93;;;-2.90;99.90;;;;;;4919125;29;20186;-29
2022/03/06 03:04:50;;;;;;;17.03;9.93;;;-2.90;99.90;;;;;;4936189;29;20273;-29
2022/03/06 03:07:16;;;;;;;22.17;11.07;;;-2.90;99.90;;;;;;4934956;29;20245;-29
2022/03/06 03:09:43;;;;;;;27.60;13.77;;;-3.00;99.90;;;;;;4918805;29;20178;-29
2022/03/06 03:12:09;;;;;;;33.17;16.73;;;-3.10;99.90;;;;;;4918824;29;20190;-29
2022/03/06 03:14:36;;;;;;;39.23;17.37;;;-3.10;99.90;;;;;;4918917;29;20217;-29
2022/03/06 03:17:04;;;;;;;25.43;14.90;;;-3.10;99.90;;;;;;4919257;29;20182;-30
2022/03/06 03:19:30;;;;;;;31.10;14.93;;;-3.20;99.90;;;;;;4918777;29;20675;-30
2022/03/06 03:21:56;;;;;;;23.53;13.30;;;-3.20;99.90;;;;;;4918662;29;20242;-30
2022/03/06 03:24:25;;;;;;;24.33;13.03;;;-3.20;99.90;;;;;;4918751;29;20202;-29
2022/03/06 03:26:51;;;;;;;23.13;12.43;;;-3.30;99.90;;;;;;4918967;29;20718;-30
2022/03/06 03:29:17;;;;;;;20.60;12.10;;;-3.40;99.90;;;;;;4918594;29;20226;-30
2022/03/06 03:31:43;;;;;;;24.30;13.23;;;-3.40;99.90;;;;;;4919007;29;20178;-30
2022/03/06 03:34:09;;;;;;;24.03;11.70;;;-3.30;99.90;;;;;;4918456;29;20194;-30
2022/03/06 03:36:35;;;;;;;21.83;12.33;;;-3.20;99.90;;;;;;4918394;29;20197;-30
2022/03/06 03:39:01;;;;;;;23.37;12.50;;;-3.20;99.90;;;;;;4918470;29;20273;-30
2022/03/06 03:41:27;;;;;;;23.17;12.00;;;-3.20;99.90;;;;;;4918589;29;20304;-30
2022/03/06 03:43:53;;;;;;;23.40;11.97;;;-3.20;99.90;;;;;;4917864;29;20293;-30
2022/03/06 03:46:19;;;;;;;21.23;11.53;;;-3.20;99.90;;;;;;4935616;29;20182;-30
2022/03/06 03:48:46;;;;;;;20.47;11.40;;;-3.30;99.90;;;;;;4918099;29;20278;-30
2022/03/06 03:51:12;;;;;;;21.80;11.80;;;-3.50;99.90;;;;;;4934004;29;20189;-30
2022/03/06 03:53:38;;;;;;;21.93;11.70;;;-3.70;99.90;;;;;;4918185;29;20314;-30
2022/03/06 03:56:05;;;;;;;22.73;12.30;;;-3.80;99.90;;;;;;4935252;29;20277;-30
2022/03/06 03:58:31;;;;;;;24.63;12.30;;;-3.90;99.90;;;;;;4918448;29;20237;-29
2022/03/06 04:00:57;;;;;;;24.33;12.53;;;-3.80;99.90;;;;;;4918104;29;20226;-30
2022/03/06 04:03:24;;;;;;;25.83;13.33;;;-3.80;99.90;;;;;;4918091;29;20211;-30
2022/03/06 04:05:50;;;;;;;23.63;12.27;;;-3.70;99.90;;;;;;4934977;29;20233;-30
2022/03/06 04:08:16;;;;;;;20.60;12.47;;;-3.60;99.90;;;;;;4935007;29;20178;-29
2022/03/06 04:10:42;;;;;;;20.97;11.87;;;-3.60;99.90;;;;;;4917474;29;20197;-29
2022/03/06 04:13:08;;;;;;;20.90;11.20;;;-3.60;99.90;;;;;;4917828;29;20210;-29
2022/03/06 04:15:34;;;;;;;21.13;11.37;;;-3.60;99.90;;;;;;4933818;29;20196;-29
2022/03/06 04:18:01;;;;;;;20.07;10.93;;;-3.60;99.90;;;;;;4917773;29;20313;-29
2022/03/06 04:20:26;;;;;;;21.93;11.37;;;-3.60;99.90;;;;;;4917584;29;20224;-29
2022/03/06 04:22:52;;;;;;;21.43;11.27;;;-3.60;99.90;;;;;;4917688;29;20573;-29
2022/03/06 04:25:18;;;;;;;20.70;11.83;;;-3.70;99.90;;;;;;4917150;29;20193;-29
2022/03/06 04:27:44;;;;;;;21.77;11.13;;;-3.70;99.90;;;;;;4934785;29;20174;-28
2022/03/06 04:30:10;;;;;;;22.10;11.23;;;-3.70;99.90;;;;;;4917471;29;20197;-29
2022/03/06 04:32:37;;;;;;;23.23;11.87;;;-3.70;99.90;;;;;;4917566;29;20181;-29
2022/03/06 04:35:05;;;;;;;23.03;11.73;;;-3.70;99.90;;;;;;4933230;29;20217;-30
2022/03/06 04:37:31;;;;;;;20.77;10.73;;;-3.80;99.90;;;;;;4917424;29;20186;-29
2022/03/06 04:39:57;;;;;;;19.13;10.73;;;-3.80;99.90;;;;;;4917288;29;20218;-29
2022/03/06 04:42:23;;;;;;;22.43;11.97;;;-3.80;99.90;;;;;;4917584;29;20659;-29
2022/03/06 04:44:49;;;;;;;20.17;11.33;;;-3.90;99.90;;;;;;4917500;29;20213;-30
2022/03/06 04:47:14;;;;;;;22.77;11.40;;;-3.90;99.90;;;;;;4917204;29;20186;-30
2022/03/06 04:49:40;;;;;;;20.00;11.60;;;-3.90;99.90;;;;;;4934250;29;20710;-29
2022/03/06 04:52:07;;;;;;;22.63;12.20;;;-3.90;99.90;;;;;;4917593;29;20190;-30
2022/03/06 04:54:33;;;;;;;21.23;10.87;;;-4.00;99.90;;;;;;4917081;29;20232;-30
2022/03/06 04:57:00;;;;;;;23.67;10.90;;;-4.00;99.90;;;;;;4917249;29;20182;-29
2022/03/06 04:59:27;;;;;;;21.67;11.80;;;-4.00;99.90;;;;;;4916919;29;20224;-29
2022/03/06 05:01:54;;;;;;;20.83;10.70;;;-4.00;99.90;;;;;;4917021;29;20178;-30
2022/03/06 05:04:20;;;;;;;21.50;11.00;;;-4.10;99.90;;;;;;4917066;29;20288;-30
2022/03/06 05:06:45;;;;;;;22.33;11.90;;;-4.10;99.90;;;;;;4916717;29;20273;-29
2022/03/06 05:09:12;;;;;;;22.83;11.50;;;-4.10;99.90;;;;;;4916968;29;20182;-29
2022/03/06 05:11:37;;;;;;;22.17;12.10;;;-4.10;99.90;;;;;;4934188;29;20182;-29
2022/03/06 05:14:04;;;;;;;24.77;11.10;;;-4.10;99.90;;;;;;4916940;29;20298;-29
2022/03/06 05:16:30;;;;;;;23.30;11.53;;;-4.10;99.90;;;;;;4916733;29;20188;-29
2022/03/06 05:18:56;;;;;;;21.47;11.23;;;-4.10;99.90;;;;;;4932413;29;20182;-29
2022/03/06 05:21:22;;;;;;;19.23;10.50;;;-4.10;99.90;;;;;;4916935;29;20225;-29
2022/03/06 05:23:48;;;;;;;22.03;11.67;;;-4.10;99.90;;;;;;4916795;29;20310;-29
2022/03/06 05:26:14;;;;;;;22.77;11.67;;;-4.00;99.90;;;;;;4934038;29;20269;-29
2022/03/06 05:28:41;;;;;;;18.20;11.03;;;-4.00;99.90;;;;;;4916663;29;20272;-29
2022/03/06 05:31:10;;;;;;;19.67;10.83;;;-4.00;99.90;;;;;;4916568;29;20197;-29
2022/03/06 05:33:36;;;;;;;21.47;11.30;;;-4.10;99.90;;;;;;4932393;29;20241;-30
2022/03/06 05:36:02;;;;;;;19.40;10.57;;;-4.10;99.90;;;;;;4915796;29;20178;-29
2022/03/06 05:38:28;;;;;;;20.43;10.37;;;-4.10;99.90;;;;;;4917020;29;20186;-29
2022/03/06 05:40:54;;;;;;;19.47;10.23;;;-4.20;99.90;;;;;;4916555;29;20220;-29
2022/03/06 05:43:20;;;;;;;21.07;10.50;;;-4.20;99.90;;;;;;4916422;29;20206;-29
2022/03/06 05:45:50;;;;;;;21.90;11.77;;;-4.20;99.90;;;;;;4916452;29;20188;-30
2022/03/06 05:48:17;;;;;;;21.60;11.00;;;-4.20;99.90;;;;;;4916824;29;20185;-29
2022/03/06 05:50:43;;;;;;;20.93;11.07;;;-4.20;99.90;;;;;;4916473;29;20672;-29
2022/03/06 05:53:09;;;;;;;21.73;11.07;;;-4.20;99.90;;;;;;4932373;29;20210;-29
2022/03/06 05:55:35;;;;;;;22.83;11.90;;;-4.20;99.90;;;;;;4916542;29;20264;-29
2022/03/06 05:58:02;;;;;;;19.90;10.50;;;-4.20;99.90;;;;;;4916582;29;20178;-30
2022/03/06 06:00:28;;;;;;;19.67;10.93;;;-4.30;99.90;;;;;;4916078;29;20210;-29
2022/03/06 06:02:55;;;;;;;21.63;11.43;;;-4.40;99.90;;;;;;4916511;29;20209;-29
2022/03/06 06:05:22;;;;;;;21.93;11.17;;;-4.40;99.90;;;;;;4916692;29;20231;-29
2022/03/06 06:07:48;;;;;;;22.00;11.77;;;-4.50;99.90;;;;;;4916646;29;20182;-29
2022/03/06 06:10:15;;;;;;;20.63;11.13;;;-4.50;99.90;;;;;;4916151;29;20190;-28
2022/03/06 06:12:41;;;;;;;22.47;11.30;;;-4.40;99.90;;;;;;4916327;29;20190;-30
2022/03/06 06:15:09;;;;;;;22.30;11.83;;;-4.30;99.90;;;;;;4916270;29;20214;-30
2022/03/06 06:17:35;;;;;;;24.00;11.37;;;-4.30;99.90;;;;;;4916419;29;20186;-29
2022/03/06 06:20:04;;;;;;;20.63;11.37;;;-4.40;99.90;;;;;;4915920;29;20264;-29
2022/03/06 06:22:31;;;;;;;22.17;11.30;;;-4.30;99.90;;;;;;4916408;29;20178;-29
2022/03/06 06:24:58;;;;;;;23.33;11.80;;;-4.30;99.90;;;;;;4916289;29;20307;-29
2022/03/06 06:27:23;;;;;;;24.70;12.60;;;-4.30;99.90;;;;;;4916136;29;20189;-29
2022/03/06 06:29:49;;;;;;;24.80;13.37;;;-4.20;99.90;;;;;;4916118;29;20186;-29
2022/03/06 06:32:15;;;;;;;30.07;14.93;;;-4.20;99.90;;;;;;4916458;29;20179;-29
2022/03/06 06:34:42;;;;;;;29.17;13.80;;;-4.20;99.90;;;;;;4916180;29;20209;-29
2022/03/06 06:37:08;;;;;;;23.37;11.87;;;-4.10;99.90;;;;;;4916379;29;20182;-29
2022/03/06 06:39:34;;;;;;;20.53;11.93;;;-4.10;99.90;;;;;;4916372;29;20217;-29
2022/03/06 06:42:03;;;;;;;21.33;11.47;;;-4.00;99.90;;;;;;4934718;29;20194;-29
2022/03/06 06:44:29;;;;;;;24.13;12.00;;;-3.90;99.90;;;;;;4934763;29;20208;-29
2022/03/06 06:46:55;;;;;;;24.07;11.53;;;-3.90;99.90;;;;;;4935309;28;20184;-30
2022/03/06 06:49:21;;;;;;;21.63;11.37;;;-3.80;99.90;;;;;;4938249;29;20181;-29
2022/03/06 06:51:47;;;;;;;21.23;10.80;;;-3.80;99.90;;;;;;4937987;29;20200;-29
2022/03/06 06:54:13;;;;;;;26.10;13.57;;;-3.80;99.90;;;;;;4955277;28;20280;-29
2022/03/06 06:56:39;;;;;;;28.37;15.47;;;-3.70;99.90;;;;;;4938068;29;20177;-29
2022/03/06 06:59:07;;;;;;;27.37;14.73;;;-3.80;99.90;;;;;;4955049;28;20193;-29
2022/03/06 07:01:32;;;;;;;26.03;13.57;;;-3.80;99.90;;;;;;4938319;29;20562;-29
2022/03/06 07:03:58;;;;;;;23.37;13.30;;;-3.80;99.90;;;;;;4938230;29;20256;-29
2022/03/06 07:06:24;;;;;;;25.30;14.00;;;-3.70;99.90;;;;;;4938386;29;20182;-30
2022/03/06 07:08:50;;;;;;;24.20;12.03;;;-3.60;99.90;;;;;;4921965;28;20267;-29
2022/03/06 07:11:15;;;;;;;26.60;12.50;;;-3.50;99.90;;;;;;4941301;29;20209;-29
2022/03/06 07:13:41;;;;;;;23.90;11.90;;;-3.50;99.90;;;;;;4910995;29;20291;-29
2022/03/06 07:16:07;;;;;;;23.90;12.70;;;-3.40;99.90;;;;;;4917920;29;20196;-29
2022/03/06 07:18:33;;;;;;;26.40;14.17;;;-3.30;99.90;;;;;;4920019;29;20182;-29
2022/03/06 07:21:02;;;;;;;29.90;14.93;;;-3.20;99.90;;;;;;4909641;29;20256;-29
2022/03/06 07:23:29;;;;;;;30.77;15.20;;;-3.10;99.90;;;;;;4928875;28;20213;-29
2022/03/06 07:25:55;;;;;;;25.70;14.67;;;-2.90;99.90;;;;;;4911204;29;20190;-29
2022/03/06 07:28:20;;;;;;;27.93;14.17;;;-2.80;99.90;;;;;;4927123;29;20254;-30
2022/03/06 07:30:48;;;;;;;24.57;13.80;;;-2.70;99.90;;;;;;4937507;29;20181;-30
2022/03/06 07:33:14;;;;;;;26.60;14.40;;;-2.60;99.90;;;;;;4926842;29;20332;-29
2022/03/06 07:35:40;;;;;;;28.43;14.30;;;-2.50;99.90;;;;;;4924602;29;20182;-29
2022/03/06 07:38:06;;;;;;;28.17;14.87;;;-2.40;99.90;;;;;;4927806;28;20185;-29
2022/03/06 07:40:33;;;;;;;27.73;14.33;;;-2.30;99.90;;;;;;4936182;29;20221;-29
2022/03/06 07:42:59;;;;;;;28.57;14.80;;;-2.20;99.90;;;;;;4921030;29;20193;-29
2022/03/06 07:45:25;;;;;;;30.13;16.60;;;-2.00;99.90;;;;;;4934763;29;20186;-29
2022/03/06 07:47:51;;;;;;;28.87;15.07;;;-2.00;99.90;;;;;;4944678;29;20185;-30
2022/03/06 07:50:18;;;;;;;24.07;13.73;;;-1.80;99.90;;;;;;4926066;29;20201;-30
2022/03/06 07:52:44;;;;;;;25.90;13.43;;;-1.70;99.90;;;;;;4937046;29;20190;-30
2022/03/06 07:55:11;;;;;;;24.23;14.00;;;-1.60;99.90;;;;;;4926655;29;20208;-29
2022/03/06 07:57:37;;;;;;;23.87;14.30;;;-1.50;99.90;;;;;;4945581;28;20181;-29
2022/03/06 08:00:06;;;;;;;24.43;13.70;;;-1.40;99.90;;;;;;4934033;29;20198;-29
2022/03/06 08:02:39;;;;;;;25.47;13.63;;;-1.20;99.90;;;;;;4943472;29;20196;-29
2022/03/06 08:05:07;;;;;;;23.47;14.00;;;-1.10;99.90;;;;;;4927029;29;20204;-29
2022/03/06 08:07:33;;;;;;;25.03;13.57;;;-0.90;99.90;;;;;;4936263;29;20196;-29
2022/03/06 08:09:59;;;;;;;24.60;13.67;;;-0.80;99.90;;;;;;4925203;29;20249;-29
2022/03/06 08:12:27;;;;;;;21.03;12.23;;;-0.70;99.90;;;;;;4927169;29;20268;-29
2022/03/06 08:14:54;;;;;;;23.93;12.83;;;-0.60;99.90;;;;;;4929007;29;20220;-29
2022/03/06 08:17:20;;;;;;;26.60;14.17;;;-0.40;99.90;;;;;;4934487;29;20182;-29
2022/03/06 08:19:46;;;;;;;26.30;14.07;;;-0.40;99.90;;;;;;4923900;29;20213;-28
2022/03/06 08:22:13;;;;;;;26.87;14.23;;;-0.20;99.90;;;;;;4933192;29;20180;-28
2022/03/06 08:24:39;;;;;;;24.07;13.83;;;0.00;99.90;;;;;;4934137;29;20201;-29
2022/03/06 08:27:05;;;;;;;21.60;12.37;;;0.10;99.90;;;;;;4917074;29;20182;-30
2022/03/06 08:29:30;;;;;;;22.90;13.53;;;0.20;99.90;;;;;;4948857;29;20190;-29
2022/03/06 08:31:56;;;;;;;25.70;13.97;;;0.30;99.90;;;;;;4949497;28;20175;-28
2022/03/06 08:34:22;;;;;;;22.00;12.50;;;0.40;99.90;;;;;;4949078;28;20218;-29
2022/03/06 08:36:48;;;;;;;23.97;13.93;;;0.50;99.90;;;;;;4917406;29;20187;-30
2022/03/06 08:39:14;;;;;;;26.13;14.20;;;0.60;99.90;;;;;;4949043;29;20186;-29
2022/03/06 08:41:40;;;;;;;25.97;13.37;;;0.80;99.90;;;;;;4935244;29;20217;-28
2022/03/06 08:44:06;;;;;;;24.20;13.30;;;1.00;99.90;;;;;;4936339;29;20205;-28
2022/03/06 08:46:31;;;;;;;22.83;13.07;;;1.10;99.90;;;;;;4924036;29;20177;-28
2022/03/06 08:48:58;;;;;;;22.47;14.33;;;1.20;99.90;;;;;;4924489;29;20179;-28
2022/03/06 08:51:23;;;;;;;21.33;13.60;;;1.40;99.90;;;;;;4917358;29;20246;-30
2022/03/06 08:53:49;;;;;;;24.23;14.50;;;1.60;99.90;;;;;;4917160;29;20215;-29
2022/03/06 08:56:15;;;;;;;24.17;13.60;;;1.60;99.90;;;;;;4917125;29;20190;-30
2022/03/06 08:58:41;;;;;;;22.40;13.53;;;1.70;99.90;;;;;;4949123;29;20245;-29
2022/03/06 09:01:07;;;;;;;22.23;13.30;;;1.90;99.90;;;;;;4917176;29;20212;-28
2022/03/06 09:03:32;;;;;;;24.07;14.33;;;2.00;99.90;;;;;;4928777;29;20199;-29
2022/03/06 09:05:59;;;;;;;23.93;14.00;;;2.20;99.90;;;;;;4906903;29;20178;-29
2022/03/06 09:08:26;;;;;;;22.37;13.47;;;2.30;99.90;;;;;;4906662;29;20177;-29
2022/03/06 09:10:51;;;;;;;21.23;13.03;;;2.40;99.90;;;;;;4907164;29;20289;-29
2022/03/06 09:13:21;;;;;;;23.87;14.07;;;2.60;99.90;;;;;;4906472;29;20212;-30
2022/03/06 09:15:48;;;;;;;22.43;14.07;;;2.80;99.90;;;;;;4906165;29;20189;-27
2022/03/06 09:18:13;;;;;;;25.17;14.57;;;2.90;99.90;;;;;;4900539;29;20210;-29
2022/03/06 09:20:39;;;;;;;22.93;14.03;;;3.00;99.90;;;;;;4899397;29;20244;-30
2022/03/06 09:23:07;;;;;;;21.20;13.47;;;3.00;99.90;;;;;;4915466;29;20173;-29
2022/03/06 09:25:34;;;;;;;21.87;13.40;;;3.20;99.90;;;;;;4934681;29;20205;-29
2022/03/06 09:28:02;;;;;;;22.83;13.13;;;3.30;99.90;;;;;;4912369;29;20182;-28
2022/03/06 09:30:30;;;;;;;22.67;13.30;;;3.40;99.90;;;;;;4904659;29;20194;-29
2022/03/06 09:32:56;;;;;;;23.80;13.73;;;3.60;99.90;;;;;;4907270;29;20178;-29
2022/03/06 09:35:22;;;;;;;22.60;12.23;;;3.80;99.90;;;;;;4922952;29;20273;-29
2022/03/06 09:37:49;;;;;;;19.07;12.27;;;4.00;99.90;;;;;;4915696;29;20247;-28
2022/03/06 09:40:16;;;;;;;20.80;11.73;;;4.10;99.90;;;;;;4914136;29;20217;-30
2022/03/06 09:42:42;;;;;;;18.40;11.40;;;4.30;99.90;;;;;;4899072;29;20194;-29
2022/03/06 09:45:12;;;;;;;17.67;10.93;;;4.40;99.90;;;;;;4913904;29;20197;-29
2022/03/06 09:47:42;;;;;;;17.53;10.80;;;4.50;99.90;;;;;;4937539;29;20226;-29
2022/03/06 09:50:10;;;;;;;20.20;12.20;;;4.60;99.90;;;;;;4922207;29;20189;-29
2022/03/06 09:52:38;;;;;;;17.97;11.40;;;4.60;99.90;;;;;;4906920;29;20186;-29
2022/03/06 09:55:04;;;;;;;19.47;11.47;;;4.70;99.90;;;;;;4921218;29;20198;-29
2022/03/06 09:57:30;;;;;;;17.13;10.77;;;4.80;99.90;;;;;;4936129;29;20185;-29
2022/03/06 09:59:56;;;;;;;18.90;10.67;;;5.00;99.90;;;;;;4921393;29;20214;-30
2022/03/06 10:02:23;;;;;;;18.00;11.17;;;5.20;99.90;;;;;;4918756;29;20190;-31
2022/03/06 10:04:50;;;;;;;17.37;9.83;;;5.30;99.90;;;;;;4920782;29;20204;-31
2022/03/06 10:07:19;;;;;;;15.40;9.87;;;5.40;99.90;;;;;;4940614;29;20833;-30
2022/03/06 10:09:49;;;;;;;16.63;9.87;;;5.40;99.90;;;;;;4917482;29;20187;-29
2022/03/06 10:12:30;;;;;;;16.00;10.27;;;5.40;99.90;;;;;;4926763;29;20179;-31
2022/03/06 10:14:57;;;;;;;16.33;9.50;;;5.50;99.90;;;;;;4928659;29;20224;-30
2022/03/06 10:17:25;;;;;;;17.73;10.37;;;5.50;99.90;;;;;;4930043;29;20208;-29
2022/03/06 10:19:51;;;;;;;16.87;10.20;;;5.50;99.90;;;;;;4925627;29;20202;-28
2022/03/06 10:22:18;;;;;;;15.20;9.83;;;5.60;99.90;;;;;;4948557;28;20183;-29
2022/03/06 10:24:53;;;;;;;15.43;9.43;;;5.60;99.60;;;;;;4923521;29;20190;-29
2022/03/06 10:27:57;;;;;;;15.33;9.70;;;5.70;99.80;;;;;;4927910;29;20178;-29
2022/03/06 10:30:29;;;;;;;14.87;9.40;;;5.90;99.90;;;;;;4924741;29;20639;-29
2022/03/06 10:33:01;;;;;;;16.73;10.10;;;5.90;99.70;;;;;;4926958;29;20193;-30
2022/03/06 10:35:40;;;;;;;15.47;9.83;;;5.80;98.80;;;;;;4944839;29;20221;-29
2022/03/06 10:38:39;;;;;;;15.90;10.03;;;5.90;99.60;;;;;;4925114;29;20187;-30
2022/03/06 10:41:10;;;;;;;15.83;9.73;;;6.10;99.60;;;;;;4931759;29;20225;-28
2022/03/06 10:43:36;;;;;;;12.87;8.87;;;6.20;99.40;;;;;;4929331;29;20200;-30
2022/03/06 10:46:14;;;;;;;14.53;10.27;;;6.30;99.00;;;;;;4935927;29;20192;-31
2022/03/06 10:48:42;;;;;;;23.23;12.63;;;6.30;98.50;;;;;;4907182;29;20189;-29
2022/03/06 10:51:12;;;;;;;24.43;15.07;;;6.50;98.40;;;;;;4945541;28;20189;-31
2022/03/06 10:53:41;;;;;;;24.60;15.03;;;6.60;98.40;;;;;;4908294;29;20206;-30
2022/03/06 10:56:12;;;;;;;15.00;9.13;;;6.70;97.60;;;;;;4935205;29;20192;-30
2022/03/06 10:58:44;;;;;;;17.93;11.20;;;6.60;97.20;;;;;;4947285;29;20254;-33
2022/03/06 11:01:12;;;;;;;16.30;9.87;;;6.70;97.60;;;;;;4944271;29;20287;-29
2022/03/06 11:03:40;;;;;;;15.20;10.17;;;6.70;97.80;;;;;;4947228;29;20197;-29
2022/03/06 11:06:07;;;;;;;14.40;9.47;;;6.80;98.10;;;;;;4954560;28;20219;-29
2022/03/06 11:08:34;;;;;;;14.70;9.87;;;6.90;97.80;;;;;;4923333;29;20239;-30
2022/03/06 11:11:01;;;;;;;15.63;9.63;;;7.00;98.00;;;;;;4926851;29;20227;-29
2022/03/06 11:13:30;;;;;;;14.53;9.77;;;6.90;97.10;;;;;;4929084;29;20227;-29
2022/03/06 11:15:57;;;;;;;14.43;9.83;;;6.90;97.20;;;;;;4924986;29;20189;-29
2022/03/06 11:18:25;;;;;;;16.80;10.37;;;6.70;97.20;;;;;;4928752;29;20284;-28
2022/03/06 11:20:56;;;;;;;14.57;9.60;;;6.80;97.50;;;;;;4935037;29;20204;-29
2022/03/06 11:23:37;;;;;;;15.50;10.20;;;6.80;97.20;;;;;;4921494;29;20208;-30
2022/03/06 11:26:09;;;;;;;14.53;9.40;;;6.80;96.50;;;;;;4935440;29;20173;-30
2022/03/06 11:28:47;;;;;;;14.87;9.13;;;6.90;97.20;;;;;;4902481;29;20203;-29
2022/03/06 11:31:13;;;;;;;13.60;9.40;;;7.10;96.50;;;;;;4928263;29;20287;-30
2022/03/06 11:33:44;;;;;;;14.50;9.03;;;6.80;95.90;;;;;;4937142;28;20219;-29
2022/03/06 11:36:25;;;;;;;13.10;9.10;;;6.60;96.50;;;;;;4953736;29;20185;-30
2022/03/06 11:38:52;;;;;;;14.17;9.33;;;6.70;95.80;;;;;;4937504;29;20210;-29
2022/03/06 11:41:19;;;;;;;12.93;9.27;;;6.80;95.60;;;;;;4923683;29;20256;-29
2022/03/06 11:43:49;;;;;;;13.37;9.17;;;6.80;95.10;;;;;;4918365;29;20211;-30
2022/03/06 11:46:26;;;;;;;14.00;9.07;;;7.10;95.90;;;;;;4918431;29;20192;-29
2022/03/06 11:48:52;;;;;;;12.50;8.47;;;7.40;95.20;;;;;;4918232;29;20235;-30
2022/03/06 11:51:22;;;;;;;10.63;8.00;;;7.20;94.40;;;;;;4946480;29;20402;-30
2022/03/06 11:54:08;;;;;;;12.23;8.17;;;7.60;95.20;;;;;;4926442;29;20253;-30
2022/03/06 11:56:40;;;;;;;12.87;9.37;;;8.00;94.20;;;;;;4923849;29;20229;-30
2022/03/06 11:59:11;;;;;;;14.97;9.50;;;8.20;94.20;;;;;;4910593;29;20182;-30
2022/03/06 12:01:43;;;;;;;13.30;8.83;;;8.30;93.40;;;;;;4927907;29;20231;-30
2022/03/06 12:04:18;;;;;;;13.93;8.93;;;7.60;93.70;;;;;;4934215;29;20205;-30
2022/03/06 12:07:16;;;;;;;14.77;9.40;;;7.50;93.70;;;;;;4925565;29;20258;-29
2022/03/06 12:09:46;;;;;;;13.60;8.50;;;7.40;94.40;;;;;;4921999;29;20185;-32
2022/03/06 12:12:18;;;;;;;14.13;9.33;;;7.50;94.50;;;;;;4938982;29;20181;-29
2022/03/06 12:14:56;;;;;;;12.77;9.40;;;7.50;93.50;;;;;;4933853;29;20208;-29
2022/03/06 12:17:31;;;;;;;14.10;8.97;;;7.40;93.80;;;;;;4911031;29;20188;-30
2022/03/06 12:19:57;;;;;;;11.87;8.47;;;7.40;93.50;;;;;;4928170;29;20200;-31
2022/03/06 12:22:32;;;;;;;14.23;9.27;;;7.40;94.00;;;;;;4927681;29;20217;-30
2022/03/06 12:25:11;;;;;;;13.90;9.80;;;7.40;93.80;;;;;;4921203;29;20204;-30
2022/03/06 12:27:41;;;;;;;14.77;9.20;;;7.60;93.60;;;;;;4919232;29;20178;-30
2022/03/06 12:30:09;;;;;;;12.60;8.60;;;7.80;93.30;;;;;;4923715;29;20235;-30
2022/03/06 12:32:38;;;;;;;12.57;8.60;;;7.90;93.20;;;;;;4944152;29;20185;-30